RACE 2 - A Fleet - 5/23/18 at 18:00:00

Start: A Fleet, Finishes: Finish time, Time: 18:15, Distance: 5.3, Course: 11
Rank Fleet Boat Class SailNo HelmName Rating Start Finish Elapsed Corrected
1 A FEARLESS Melges 32 184 Lucas/Durlach 24 18:15 19:01:17 0:46:17 0:52:25
2 A PHOTON ID 35 35022 Hibdon 36 18:15 19:04:21 0:49:21 0:54:44
3 A WARHORSE ID 35 35006 Brown 36 18:15 19:04:51 0:49:51 0:55:18
4 A MOOSE DOWN J 120 CF 521201 Moore 48 18:15 19:06:08 0:51:08 0:55:35
5 A FOGDOG ID 35 35029 Guhl 36 18:15 19:05:15 0:50:15 0:55:44
6 A GUILLOTINE Melges 32 174 Mossman 24 18:15 19:04:59 0:49:59 0:56:36
7 A KINETIC J 111 73 Stein 39     DNC  
7 A DAUNTLESS Beneteau 47.7 28477B Terwilliger 27     DNC  

RACE 2 - B Fleet - 5/23/18 at 18:00:00

Start: B Fleet, Finishes: Finish time, Time: 18:27, Distance: 5.5, Course: 9
Rank Fleet Boat Class SailNo HelmName Rating Start Finish Elapsed Corrected
1 B ORANGE CRUSH J 24 828 Benjamin 171 18:27 19:32:16 1:05:16 0:58:50
2 B CHICORA J 24 2349 Hill 171 18:27 19:32:17 1:05:17 0:58:51
3 B MATADORA J 24 5259 Rogge 171 18:27 19:33:05 1:06:05 0:59:35
4 B JO MAMMA J 24 3266 Palazzo 171 18:27 19:34:01 1:07:01 1:00:25
5 B LEVEL PELICAN J 24 2260 McDonald 171 18:27 19:34:32 1:07:32 1:00:53
6 B DIRTY DOG J 24 5357 Moffly 171 18:27 19:36:04 1:09:04 1:02:16
7 B WHISKEY & KNIVES Sparkman & Stephens 30 30001 Hemmerling 153 18:27 19:36:11 1:09:11 1:03:58
8 B HAVOC Kirby 25 100 O'Connor 180     DNC  
8 B PUFF DADDY J 24 4398 Lent 171     DNC  

RACE 2 - C Fleet - 5/23/18 at 18:00:00

Start: C Fleet, Finishes: Finish time, Time: 18:33, Distance: 5.3, Course: 11
Rank Fleet Boat Class SailNo HelmName Rating Start Finish Elapsed Corrected
1 C INDIGO Pearson Vanguard 184 Dodds 228 18:33 19:29:12 0:56:12 0:46:57
2 C LAS BRISAS J 30 32956 Swatta 160 18:33 19:28:32 0:55:32 0:50:50
3 C CELADON Moorings 510 51704 Lesniak 96     RET  

RACE 2 - D Fleet - 5/23/18 at 18:00:00

Start: D Fleet, Finishes: Finish time, Time: 18:45, Distance: 4.58, Course: 4
Rank Fleet Boat Class SailNo HelmName Rating Start Finish Elapsed Corrected
1 D MOON RIVER Kenner Privateer 26 116 Moore 276 18:45 19:47:02 1:02:02 0:48:49
2 D DIRECTION Morgan 30-2 7 Springer 201 18:45 19:42:26 0:57:26 0:49:43
3 D KAMIKAZE 5 Morgan 30/2 569 Simons 201 18:45 19:42:57 0:57:57 0:50:09
4 D MENTAL HEELING Catalina 30 5399 Keeney 221 18:45 19:50:53 1:05:53 0:55:33
5 D ELLA W BRAY Marshall 22 22 Kenan 285 18:45 20:05:27 NCK 1:02:38
5 D TROUBLE Hunter 240 H240 VanWagenen 277 18:45 20:09:03 1:24:03 1:06:04
7 D ANON Hunter 31 H310 Carns 206 18:45 20:13:02 1:28:02 1:15:41

RACE 2 - N Fleet - 5/23/18 at 18:00:00

Start: N Fleet, Finishes: Finish time, Time: 18:39, Distance: 4.58, Course: 4
Rank Fleet Boat Class SailNo HelmName Rating Start Finish Elapsed Corrected
1 N SCEPTRE J 130 CF SD 28693 Musor 45 18:39 19:21:18 0:42:18 0:46:13
2 N EMOCEAN J 120 Al 37120 Hanckel 62 18:39 19:23:45 0:44:45 0:47:32
3 N FATE Beneteau 49 15 Ryan 127 18:39 19:31:36 0:52:36 0:50:30
4 N ALLIANCE Ericson 38 265 Stetler 150 18:39 19:33:27 0:54:27 0:50:34
5 N SEAMOUR Catalina 380 192 Seymour 151 18:39 19:42:07 1:03:07 0:58:31
6 N KELLY KREW Catalina 385 WK 212 Kelly 166 18:39 19:43:37 1:04:37 0:58:40

RACE 2 - S Fleet - 5/23/18 at 18:00:00

Start: S Fleet, Finishes: Finish time, Time: 18:21, Distance: 5.3, Course: 11
Rank Fleet Boat Class SailNo HelmName Rating Start Finish Elapsed Corrected
1 S JOY RIDE J 105 97 Scribner 90 18:21 19:13:23 0:52:23 0:53:12
2 S SKIMMER J 105 313 Martschink/Hagood 90 18:21 19:14:30 0:53:30 0:54:20
3 S RUMFRONT J 105 51306 Martschink/McKemzie. 90 18:21 19:14:58 0:53:58 0:54:49
4 S TEMPTRESS SR 33 OB 50484 King 69 18:21 19:14:45 0:53:45 0:56:27
5 S RUCKUS J105 239 Seif 90 18:21 19:17:19 0:56:19 0:57:12
6 S ARROW J 35 32864 Schwenzfeier 72 18:21 19:15:46 0:54:46 0:57:14
7 S CHEERS Santana 30/30 83472 Mackin 120 18:21 19:21:00 1:00:00 0:58:13
8 S DIFFERENT DRUMMER Azzura 310 1000 Gaag 66 18:21 19:16:46 0:55:46 0:58:51
9 S RELOAD X-Treme 26 60848 Popov 90 18:21 19:19:37 0:58:37 0:59:32
10 S EASTERLY e 33 16 Cramer/Barnes 102 18:21 19:26:13 1:05:13 1:05:01

RACE 2 - V Fleet - 5/23/18 at 18:00:00

Start: B Fleet, Finishes: Finish time, Time: 18:27, Distance: 5.5, Course: 9
Rank Fleet Boat Class SailNo HelmName Rating Start Finish Elapsed Corrected
1 V SENDIT VX1 USA160 Wiggens   18:27 19:21:48 0:54:48 1:04:46

Scoring codes used

Code Description Points
DNC Did not come to the starting area Varies
NCK Boat failed to check in before race 6
RET Retired 4


http://www.charlestonoceanracing.com/

Sailwave Scoring Software 2.19.8
www.sailwave.com